createdAt,value
2023-05-15T00:01:00.834Z,98192.45
2023-05-15T00:04:17.813Z,98191.02
2023-05-15T00:07:34.312Z,98187.75
2023-05-15T00:11:00.674Z,98183.05
2023-05-15T00:14:08.898Z,98181.41
2023-05-15T00:17:25.129Z,98183.85
2023-05-15T00:20:43.686Z,98177.14
2023-05-15T00:23:59.802Z,98182.86
2023-05-15T00:27:16.429Z,98173.86
2023-05-15T00:30:33.013Z,98170.80
2023-05-15T00:33:50.622Z,98153.42
2023-05-15T00:37:07.043Z,98159.14
2023-05-15T00:40:28.012Z,98147.30
2023-05-15T00:43:47.619Z,98142.78
2023-05-15T00:47:05.630Z,98139.91
2023-05-15T00:50:23.167Z,98139.53
2023-05-15T00:53:39.542Z,98120.92
2023-05-15T00:56:58.389Z,98121.11
2023-05-15T01:00:19.432Z,98119.88
2023-05-15T01:03:36.126Z,98114.77
2023-05-15T01:06:54.554Z,98109.27
2023-05-15T01:10:13.450Z,98104.97
2023-05-15T01:13:30.924Z,98103.77
2023-05-15T01:16:47.399Z,98097.83
2023-05-15T01:20:07.311Z,98116.22
2023-05-15T01:23:29.412Z,98117.06
2023-05-15T01:27:25.000Z,98110.50
2023-05-15T01:30:45.794Z,98101.73
2023-05-15T01:34:07.877Z,98100.48
2023-05-15T01:37:28.480Z,98097.83
2023-05-15T01:40:45.663Z,98094.16
2023-05-15T01:44:08.678Z,98094.37
2023-05-15T01:47:31.122Z,98084.97
2023-05-15T01:50:50.920Z,98078.64
2023-05-15T01:54:09.333Z,98081.08
2023-05-15T01:57:27.622Z,98074.52
2023-05-15T02:00:48.323Z,98073.94
2023-05-15T02:04:05.871Z,98066.18
2023-05-15T02:07:25.577Z,98058.80
2023-05-15T02:10:44.622Z,98049.80
2023-05-15T02:14:03.596Z,98057.55
2023-05-15T02:17:20.062Z,98052.24
2023-05-15T02:20:38.217Z,98038.55
2023-05-15T02:23:54.554Z,98030.58
2023-05-15T02:27:17.891Z,98032.43
2023-05-15T02:30:41.161Z,98019.95
2023-05-15T02:34:04.254Z,98014.05
2023-05-15T02:37:23.378Z,98009.97
2023-05-15T02:40:42.269Z,98004.22
2023-05-15T02:44:01.693Z,98003.42
2023-05-15T02:47:20.154Z,98004.47
2023-05-15T02:50:37.195Z,97995.67
2023-05-15T02:53:53.482Z,98001.17
2023-05-15T02:57:10.106Z,97998.94
2023-05-15T03:00:27.827Z,97997.30
2023-05-15T03:03:44.233Z,98010.16
2023-05-15T03:07:00.626Z,98001.38
2023-05-15T03:10:18.291Z,98002.84
2023-05-15T03:13:34.814Z,97998.94
2023-05-15T03:16:51.771Z,97996.28
2023-05-15T03:20:09.490Z,97991.19
2023-05-15T03:23:28.754Z,97999.16
2023-05-15T03:26:46.440Z,97994.64
2023-05-15T03:30:02.882Z,97997.09
2023-05-15T03:33:19.251Z,97995.66
2023-05-15T03:36:35.723Z,97996.03
2023-05-15T03:39:52.750Z,97989.11
2023-05-15T03:43:08.999Z,97985.21
2023-05-15T03:46:25.356Z,97982.34
2023-05-15T03:49:41.712Z,97980.30
2023-05-15T03:52:58.414Z,97972.31
2023-05-15T03:56:15.180Z,97976.17
2023-05-15T03:59:32.057Z,97962.45
2023-05-15T04:02:48.568Z,97966.16
2023-05-15T04:06:05.023Z,97964.08
2023-05-15T04:09:21.585Z,97962.25
2023-05-15T04:12:39.104Z,97951.23
2023-05-15T04:15:56.202Z,97954.91
2023-05-15T04:19:12.802Z,97952.03
2023-05-15T04:22:29.083Z,97952.20
2023-05-15T04:25:47.273Z,97938.11
2023-05-15T04:29:04.918Z,97932.16
2023-05-15T04:32:21.502Z,97928.45
2023-05-15T04:35:38.035Z,97920.06
2023-05-15T04:38:54.468Z,97910.84
2023-05-15T04:42:11.559Z,97908.19
2023-05-15T04:45:28.163Z,97898.96
2023-05-15T04:48:44.568Z,97903.48
2023-05-15T04:52:02.190Z,97909.38
2023-05-15T04:55:19.679Z,97917.19
2023-05-15T04:58:36.368Z,97918.38
2023-05-15T05:01:52.828Z,97919.79
2023-05-15T05:05:09.282Z,97918.13
2023-05-15T05:08:25.809Z,97914.61
2023-05-15T05:11:44.047Z,97913.53
2023-05-15T05:15:00.425Z,97923.94
2023-05-15T05:18:17.607Z,97911.48
2023-05-15T05:21:33.864Z,97900.77
2023-05-15T05:24:50.210Z,97905.45
2023-05-15T05:28:08.914Z,97912.63
2023-05-15T05:31:25.875Z,97913.66
2023-05-15T05:34:42.551Z,97921.64
2023-05-15T05:38:27.524Z,97927.38
2023-05-15T05:41:43.870Z,97924.52
2023-05-15T05:45:00.258Z,97920.00
2023-05-15T05:48:16.946Z,97913.66
2023-05-15T05:51:33.440Z,97923.47
2023-05-15T05:54:49.833Z,97917.98
2023-05-15T05:58:14.671Z,97908.38
2023-05-15T06:01:27.837Z,97905.94
2023-05-15T06:04:44.821Z,97891.83
2023-05-15T06:08:05.223Z,97894.05
2023-05-15T06:11:24.489Z,97880.33
2023-05-15T06:14:40.595Z,97862.28
2023-05-15T06:17:57.569Z,97857.79
2023-05-15T06:21:14.128Z,97844.48
2023-05-15T06:24:30.495Z,97853.88
2023-05-15T06:27:48.497Z,97858.75
2023-05-15T06:31:05.104Z,97844.00
2023-05-15T06:34:21.614Z,97853.58
2023-05-15T06:37:38.086Z,97852.94
2023-05-15T06:40:55.564Z,97851.63
2023-05-15T06:44:12.116Z,97846.31
2023-05-15T06:47:28.659Z,97839.93
2023-05-15T06:50:47.657Z,97847.72
2023-05-15T06:54:06.953Z,97844.45
2023-05-15T06:57:22.292Z,97843.80
2023-05-15T07:00:38.427Z,97842.31
2023-05-15T07:03:54.923Z,97837.80
2023-05-15T07:07:11.785Z,97844.33
2023-05-15T07:10:29.967Z,97848.31
2023-05-15T07:13:46.574Z,97842.93
2023-05-15T07:17:03.122Z,97846.31
2023-05-15T07:20:21.273Z,97852.18
2023-05-15T07:23:37.550Z,97853.81
2023-05-15T07:26:58.520Z,97861.05
2023-05-15T07:30:14.769Z,97860.25
2023-05-15T07:33:33.498Z,97852.33
2023-05-15T07:36:49.805Z,97861.63
2023-05-15T07:40:06.425Z,97864.20
2023-05-15T07:43:23.375Z,97867.16
2023-05-15T07:46:41.122Z,97871.95
2023-05-15T07:49:57.547Z,97875.66
2023-05-15T07:53:13.885Z,97861.78
2023-05-15T07:56:30.607Z,97867.37
2023-05-15T07:59:46.969Z,97868.30
2023-05-15T08:03:04.512Z,97870.88
2023-05-15T08:06:21.520Z,97873.00
2023-05-15T08:09:37.809Z,97883.79
2023-05-15T08:12:54.277Z,97883.44
2023-05-15T08:16:11.802Z,97887.20
2023-05-15T08:19:28.215Z,97890.59
2023-05-15T08:22:44.797Z,97884.44
2023-05-15T08:26:01.165Z,97888.27
2023-05-15T08:29:17.682Z,97884.11
2023-05-15T08:32:34.280Z,97883.74
2023-05-15T08:35:50.639Z,97889.56
2023-05-15T08:39:08.112Z,97893.49
2023-05-15T08:42:31.738Z,97888.27
2023-05-15T08:45:49.507Z,97896.73
2023-05-15T08:49:07.419Z,97887.58
2023-05-15T08:52:24.220Z,97893.02
2023-05-15T08:55:40.987Z,97893.58
2023-05-15T08:58:57.839Z,97892.44
2023-05-15T09:02:14.601Z,97898.37
2023-05-15T09:05:32.362Z,97911.48
2023-05-15T09:08:50.954Z,97919.36
2023-05-15T09:12:09.333Z,97924.59
2023-05-15T09:15:29.117Z,97920.40
2023-05-15T09:18:49.529Z,97910.86
2023-05-15T09:22:12.711Z,97904.11
2023-05-15T09:25:47.293Z,97909.22
2023-05-15T09:29:09.341Z,97904.91
2023-05-15T09:32:26.133Z,97912.69
2023-05-15T09:35:44.354Z,97913.17
2023-05-15T09:39:05.281Z,97906.19
2023-05-15T09:42:23.040Z,97927.45
2023-05-15T09:45:40.165Z,97927.20
2023-05-15T09:48:56.963Z,97939.63
2023-05-15T09:52:15.720Z,97938.83
2023-05-15T09:55:34.116Z,97926.85
2023-05-15T09:59:01.758Z,97930.20
2023-05-15T10:02:20.948Z,97926.14
2023-05-15T10:09:01.089Z,97931.25
2023-05-15T10:12:18.538Z,97919.51
2023-05-15T10:15:35.608Z,97915.91
2023-05-15T10:18:54.391Z,97918.92
2023-05-15T10:22:13.074Z,97917.78
2023-05-15T10:25:36.584Z,97927.20
2023-05-15T10:28:54.231Z,97919.53
2023-05-15T10:32:12.694Z,97918.83
2023-05-15T10:35:30.086Z,97928.48
2023-05-15T10:38:47.494Z,97936.84
2023-05-15T10:42:04.417Z,97940.07
2023-05-15T10:45:21.899Z,97949.53
2023-05-15T10:48:39.602Z,97941.84
2023-05-15T10:51:58.438Z,97952.05
2023-05-15T10:55:19.277Z,97935.55
2023-05-15T10:58:36.754Z,97948.43
2023-05-15T11:01:54.054Z,97941.36
2023-05-15T11:05:14.837Z,97940.66
2023-05-15T11:08:38.599Z,97938.08
2023-05-15T11:12:10.133Z,97935.31
2023-05-15T11:15:30.504Z,97931.68
2023-05-15T11:18:48.552Z,97930.14
2023-05-15T11:22:11.170Z,97932.60
2023-05-15T11:25:29.308Z,97942.23
2023-05-15T11:29:28.607Z,97932.60
2023-05-15T11:33:00.437Z,97928.05
2023-05-15T11:36:20.813Z,97925.84
2023-05-15T11:39:37.528Z,97924.45
2023-05-15T11:43:09.896Z,97922.13
2023-05-15T11:46:28.654Z,97918.16
2023-05-15T11:49:46.479Z,97920.61
2023-05-15T11:53:03.788Z,97926.67
2023-05-15T11:56:29.167Z,97929.28
2023-05-15T11:59:45.843Z,97926.73
2023-05-15T12:03:02.196Z,97927.95
2023-05-15T12:06:20.565Z,97921.97
2023-05-15T12:09:37.549Z,97925.78
2023-05-15T12:12:54.430Z,97917.91
2023-05-15T12:16:12.341Z,97923.84
2023-05-15T12:19:39.867Z,97920.14
2023-05-15T12:22:56.445Z,97909.61
2023-05-15T12:26:14.315Z,97907.80
2023-05-15T12:29:33.757Z,97909.68
2023-05-15T12:32:48.124Z,97904.72
2023-05-15T12:36:06.004Z,97903.67
2023-05-15T12:39:23.073Z,97910.19
2023-05-15T12:42:48.424Z,97912.86
2023-05-15T12:46:05.761Z,97901.00
2023-05-15T12:49:28.206Z,97903.20
2023-05-15T12:52:45.893Z,97883.95
2023-05-15T12:56:02.477Z,97882.10
2023-05-15T12:59:20.882Z,97890.20
2023-05-15T13:02:37.747Z,97892.31
2023-05-15T13:05:56.443Z,97886.36
2023-05-15T13:09:15.444Z,97882.95
2023-05-15T13:12:33.003Z,97892.17
2023-05-15T13:15:55.788Z,97879.73
2023-05-15T13:19:12.554Z,97868.27
2023-05-15T13:22:29.003Z,97866.27
2023-05-15T13:25:45.680Z,97873.98
2023-05-15T13:29:03.428Z,97867.52
2023-05-15T13:32:20.048Z,97893.16
2023-05-15T13:35:36.965Z,97879.05
2023-05-15T13:38:56.065Z,97879.97
2023-05-15T13:42:12.862Z,97881.02
2023-05-15T13:45:29.209Z,97895.49
2023-05-15T13:48:45.666Z,97894.16
2023-05-15T13:52:02.076Z,97890.33
2023-05-15T13:55:20.926Z,97880.45
2023-05-15T13:58:38.232Z,97877.74
2023-05-15T14:01:55.161Z,97881.95
2023-05-15T14:05:12.572Z,97896.38
2023-05-15T14:08:28.990Z,97904.94
2023-05-15T14:11:45.425Z,97914.31
2023-05-15T14:15:01.976Z,97907.75
2023-05-15T14:18:18.401Z,97914.48
2023-05-15T14:21:35.679Z,97927.03
2023-05-15T14:24:52.372Z,97924.69
2023-05-15T14:28:08.923Z,97909.13
2023-05-15T14:31:26.442Z,97913.44
2023-05-15T14:34:44.656Z,97913.91
2023-05-15T14:38:02.218Z,97909.13
2023-05-15T14:41:18.776Z,97914.06
2023-05-15T14:44:35.582Z,97911.84
2023-05-15T14:47:52.146Z,97904.66
2023-05-15T14:51:11.619Z,97897.30
2023-05-15T14:54:28.220Z,97895.89
2023-05-15T14:57:47.435Z,97900.44
2023-05-15T15:01:04.258Z,97902.78
2023-05-15T15:04:20.747Z,97902.06
2023-05-15T15:07:38.788Z,97896.13
2023-05-15T15:10:55.260Z,97898.56
2023-05-15T15:14:11.512Z,97892.99
2023-05-15T15:17:28.778Z,97891.36
2023-05-15T15:20:45.508Z,97889.31
2023-05-15T15:24:02.738Z,97903.48
2023-05-15T15:27:19.356Z,97898.01
2023-05-15T15:30:35.838Z,97906.28
2023-05-15T15:33:52.304Z,97921.59
2023-05-15T15:37:08.737Z,97920.39
2023-05-15T15:40:26.608Z,97923.98
2023-05-15T15:43:41.524Z,97923.02
2023-05-15T15:46:58.084Z,97924.98
2023-05-15T15:50:16.509Z,97923.59
2023-05-15T15:53:35.356Z,97925.69
2023-05-15T15:56:51.957Z,97935.93
2023-05-15T16:00:09.183Z,97935.69
2023-05-15T16:04:03.493Z,97942.88
2023-05-15T16:07:22.178Z,97942.33
2023-05-15T16:10:38.490Z,97952.37
2023-05-15T16:13:57.773Z,97955.75
2023-05-15T16:17:15.837Z,97949.02
2023-05-15T16:20:36.418Z,97945.20
2023-05-15T16:23:59.523Z,97943.91
2023-05-15T16:27:19.480Z,97946.34
2023-05-15T16:30:48.088Z,97939.61
2023-05-15T16:33:55.174Z,97942.87
2023-05-15T16:37:11.848Z,97950.65
2023-05-15T16:40:28.371Z,97949.52
2023-05-15T16:43:45.679Z,97960.58
2023-05-15T16:47:02.676Z,97957.14
2023-05-15T16:50:20.065Z,97961.25
2023-05-15T16:53:36.519Z,97965.33
2023-05-15T16:56:53.710Z,97960.47
2023-05-15T17:00:12.036Z,97975.33
2023-05-15T17:03:28.508Z,97969.05
2023-05-15T17:06:45.505Z,97974.75
2023-05-15T17:10:01.985Z,97971.98
2023-05-15T17:13:18.478Z,97985.47
2023-05-15T17:16:35.551Z,97985.92
2023-05-15T17:20:11.985Z,97981.86
2023-05-15T17:23:33.628Z,97992.33
2023-05-15T17:26:53.741Z,97996.62
2023-05-15T17:30:36.034Z,97998.70
2023-05-15T17:33:49.476Z,98011.13
2023-05-15T17:37:11.137Z,98018.58
2023-05-15T17:40:31.576Z,98019.50
2023-05-15T17:43:49.275Z,98023.34
2023-05-15T17:47:06.630Z,98027.86
2023-05-15T17:50:26.125Z,98036.92
2023-05-15T17:53:46.003Z,98035.52
2023-05-15T17:57:02.833Z,98038.31
2023-05-15T18:00:24.709Z,98048.88
2023-05-15T18:03:41.951Z,98046.78
2023-05-15T18:06:58.946Z,98053.27
2023-05-15T18:10:17.886Z,98054.30
2023-05-15T18:13:37.103Z,98059.95
2023-05-15T18:16:54.637Z,98063.89
2023-05-15T18:20:16.593Z,98069.35
2023-05-15T18:23:36.527Z,98070.39
2023-05-15T18:26:53.127Z,98068.31
2023-05-15T18:30:12.699Z,98075.06
2023-05-15T18:33:37.288Z,98083.24
2023-05-15T18:36:54.474Z,98082.28
2023-05-15T18:40:12.118Z,98085.28
2023-05-15T18:43:33.014Z,98089.48
2023-05-15T18:46:49.627Z,98089.87
2023-05-15T18:50:08.374Z,98100.48
2023-05-15T18:53:26.475Z,98087.20
2023-05-15T18:56:46.017Z,98090.39
2023-05-15T19:00:02.659Z,98094.77
2023-05-15T19:03:23.484Z,98106.02
2023-05-15T19:06:40.061Z,98105.86
2023-05-15T19:09:56.683Z,98115.95
2023-05-15T19:13:15.813Z,98122.47
2023-05-15T19:16:32.271Z,98127.80
2023-05-15T19:19:48.900Z,98128.22
2023-05-15T19:23:05.364Z,98135.19
2023-05-15T19:26:22.612Z,98135.72
2023-05-15T19:29:40.518Z,98141.28
2023-05-15T19:32:57.972Z,98141.51
2023-05-15T19:36:14.937Z,98142.31
2023-05-15T19:39:34.518Z,98139.27
2023-05-15T19:42:51.354Z,98139.34
2023-05-15T19:46:08.702Z,98133.02
2023-05-15T19:49:28.765Z,98140.87
2023-05-15T19:52:50.022Z,98150.57
2023-05-15T19:56:14.258Z,98151.44
2023-05-15T19:59:42.477Z,98149.48
2023-05-15T20:02:59.520Z,98149.30
2023-05-15T20:06:17.332Z,98155.94
2023-05-15T20:09:33.710Z,98162.52
2023-05-15T20:12:50.051Z,98162.52
2023-05-15T20:16:08.850Z,98160.66
2023-05-15T20:19:28.385Z,98163.16
2023-05-15T20:22:48.230Z,98164.45
2023-05-15T20:26:04.684Z,98164.50
2023-05-15T20:29:21.115Z,98169.02
2023-05-15T20:32:37.928Z,98173.34
2023-05-15T20:35:55.014Z,98171.75
2023-05-15T20:39:15.134Z,98172.38
2023-05-15T20:42:37.698Z,98166.09
2023-05-15T20:45:54.164Z,98174.52
2023-05-15T20:49:10.500Z,98168.03
2023-05-15T20:52:30.396Z,98176.86
2023-05-15T20:55:56.722Z,98183.02
2023-05-15T20:59:14.506Z,98177.30
2023-05-15T21:02:33.241Z,98184.69
2023-05-15T21:05:50.532Z,98198.42
2023-05-15T21:09:09.470Z,98195.74
2023-05-15T21:12:25.761Z,98193.09
2023-05-15T21:15:42.755Z,98194.72
2023-05-15T21:19:02.218Z,98199.02
2023-05-15T21:22:19.067Z,98197.41
2023-05-15T21:25:35.296Z,98201.08
2023-05-15T21:28:54.677Z,98207.22
2023-05-15T21:32:24.372Z,98208.47
2023-05-15T21:35:43.670Z,98214.80
2023-05-15T21:39:01.282Z,98211.53
2023-05-15T21:42:17.717Z,98214.77
2023-05-15T21:45:34.088Z,98214.16
2023-05-15T21:48:50.755Z,98219.86
2023-05-15T21:52:07.055Z,98213.33
2023-05-15T21:55:23.761Z,98215.56
2023-05-15T21:58:40.074Z,98212.29
2023-05-15T22:01:56.931Z,98204.12
2023-05-15T22:05:14.272Z,98204.53
2023-05-15T22:08:30.755Z,98208.41
2023-05-15T22:11:47.060Z,98204.74
2023-05-15T22:15:03.355Z,98202.28
2023-05-15T22:18:20.587Z,98207.00
2023-05-15T22:21:38.182Z,98209.86
2023-05-15T22:24:54.483Z,98215.59
2023-05-15T22:28:10.945Z,98214.58
2023-05-15T22:31:27.335Z,98218.04
2023-05-15T22:34:43.649Z,98211.92
2023-05-15T22:37:59.958Z,98220.90
2023-05-15T22:41:16.505Z,98218.25
2023-05-15T22:44:32.792Z,98217.41
2023-05-15T22:47:50.041Z,98219.06
2023-05-15T22:51:06.558Z,98220.89
2023-05-15T22:54:23.728Z,98230.08
2023-05-15T22:57:40.360Z,98226.59
2023-05-15T23:00:56.928Z,98223.55
2023-05-15T23:04:13.542Z,98222.70
2023-05-15T23:07:30.402Z,98229.66
2023-05-15T23:10:47.120Z,98240.10
2023-05-15T23:14:05.020Z,98239.30
2023-05-15T23:17:24.078Z,98228.66
2023-05-15T23:20:40.385Z,98227.05
2023-05-15T23:23:57.469Z,98235.41
2023-05-15T23:27:14.279Z,98234.39
2023-05-15T23:30:30.833Z,98234.19
2023-05-15T23:33:48.632Z,98236.03
2023-05-15T23:37:05.081Z,98236.23
2023-05-15T23:40:23.716Z,98231.09
2023-05-15T23:43:40.184Z,98230.26
2023-05-15T23:46:57.230Z,98234.34
2023-05-15T23:50:15.656Z,98236.75
2023-05-15T23:53:32.022Z,98240.83
2023-05-15T23:56:48.291Z,98252.84
